createdAt,value
2016-08-27T00:00:52.283Z,69.9
2016-08-27T00:01:52.268Z,70.39
2016-08-27T00:02:52.249Z,70.39
2016-08-27T00:03:52.232Z,70.39
2016-08-27T00:04:52.217Z,70.39
2016-08-27T00:05:52.202Z,70.48
2016-08-27T00:06:52.184Z,70.2
2016-08-27T00:07:52.167Z,70
2016-08-27T00:08:52.153Z,70.48
2016-08-27T00:09:52.136Z,70.48
2016-08-27T00:10:52.117Z,70.45
2016-08-27T00:11:52.102Z,70.26
2016-08-27T00:12:52.084Z,70.87
2016-08-27T00:13:52.068Z,70.94
2016-08-27T00:14:52.054Z,71.22
2016-08-27T00:15:52.041Z,71.12
2016-08-27T00:16:52.021Z,71.12
2016-08-27T00:17:52.003Z,71.51
2016-08-27T00:18:51.987Z,71.22
2016-08-27T00:19:51.969Z,71.03
2016-08-27T00:20:51.953Z,71.51
2016-08-27T00:21:51.936Z,71.61
2016-08-27T00:22:51.921Z,71.42
2016-08-27T00:23:51.904Z,71.8
2016-08-27T00:24:51.886Z,72
2016-08-27T00:25:51.867Z,71.8
2016-08-27T00:26:51.850Z,71.7
2016-08-27T00:27:51.835Z,71.9
2016-08-27T00:28:51.820Z,71.7
2016-08-27T00:29:51.804Z,71.7
2016-08-27T00:30:51.786Z,71.8
2016-08-27T00:31:51.767Z,71.61
2016-08-27T00:32:51.753Z,71.61
2016-08-27T00:33:51.742Z,71.9
2016-08-27T00:34:51.717Z,72
2016-08-27T00:35:51.717Z,72.34
2016-08-27T00:36:51.685Z,71.86
2016-08-27T00:37:51.667Z,72.15
2016-08-27T00:38:51.650Z,72.06
2016-08-27T00:39:51.632Z,72.25
2016-08-27T00:40:51.616Z,72.25
2016-08-27T00:41:51.601Z,72.25
2016-08-27T00:42:51.582Z,72.34
2016-08-27T00:43:51.568Z,72.54
2016-08-27T00:44:51.552Z,72.54
2016-08-27T00:45:51.533Z,72.54
2016-08-27T00:46:51.516Z,72.34
2016-08-27T00:47:51.498Z,72.63
2016-08-27T00:48:51.486Z,72.25
2016-08-27T00:49:51.467Z,72.54
2016-08-27T00:50:51.449Z,72.44
2016-08-27T00:51:51.430Z,72.63
2016-08-27T00:52:51.413Z,72.73
2016-08-27T00:53:51.398Z,72.92
2016-08-27T00:54:51.380Z,72.73
2016-08-27T00:55:51.363Z,72.73
2016-08-27T00:56:51.348Z,72.63
2016-08-27T00:57:51.331Z,72.73
2016-08-27T00:58:51.313Z,72.73
2016-08-27T00:59:51.296Z,72.83
2016-08-27T01:00:51.277Z,72.92
2016-08-27T01:01:51.263Z,72.44
2016-08-27T01:02:51.243Z,72.73
2016-08-27T01:03:51.227Z,72.73
2016-08-27T01:04:51.211Z,72.83
2016-08-27T01:05:51.195Z,72.73
2016-08-27T01:06:51.177Z,73.21
2016-08-27T01:07:51.161Z,73.11
2016-08-27T01:08:51.142Z,73.11
2016-08-27T01:09:51.125Z,73.02
2016-08-27T01:10:51.109Z,73.02
2016-08-27T01:11:51.092Z,72.83
2016-08-27T01:12:51.077Z,73.11
2016-08-27T01:13:51.748Z,73.02
2016-08-27T01:14:51.043Z,72.83
2016-08-27T01:15:51.026Z,72.73
2016-08-27T01:16:51.004Z,72.83
2016-08-27T01:17:50.989Z,72.54
2016-08-27T01:18:50.971Z,73.31
2016-08-27T01:19:50.953Z,73.5
2016-08-27T01:20:50.939Z,73.41
2016-08-27T01:21:50.921Z,73.6
2016-08-27T01:22:50.905Z,73.41
2016-08-27T01:23:50.888Z,73.5
2016-08-27T01:24:50.867Z,73.6
2016-08-27T01:25:50.853Z,73.69
2016-08-27T01:26:50.835Z,73.66
2016-08-27T01:27:50.815Z,73.47
2016-08-27T01:28:50.803Z,74.05
2016-08-27T01:29:50.783Z,73.95
2016-08-27T01:30:50.770Z,73.85
2016-08-27T01:31:50.750Z,74.14
2016-08-27T01:32:50.733Z,74.14
2016-08-27T01:33:50.715Z,74.33
2016-08-27T01:34:50.697Z,74.52
2016-08-27T01:35:50.678Z,74.33
2016-08-27T01:36:50.677Z,74.52
2016-08-27T01:37:50.644Z,74.43
2016-08-27T01:38:50.627Z,74.33
2016-08-27T01:39:50.610Z,74.62
2016-08-27T01:40:50.596Z,74.62
2016-08-27T01:41:50.577Z,74.82
2016-08-27T01:42:50.557Z,74.62
2016-08-27T01:43:50.540Z,74.33
2016-08-27T01:44:50.523Z,74.33
2016-08-27T01:45:50.508Z,74.33
2016-08-27T01:46:50.488Z,74.52
2016-08-27T01:47:50.470Z,75.1
2016-08-27T01:48:50.451Z,75.2
2016-08-27T01:49:50.435Z,75.3
2016-08-27T01:50:50.421Z,75.1
2016-08-27T01:51:50.400Z,75.01
2016-08-27T01:52:50.398Z,75.2
2016-08-27T01:53:50.365Z,75.01
2016-08-27T01:54:50.349Z,75.1
2016-08-27T01:55:50.330Z,75.01
2016-08-27T01:56:50.313Z,74.91
2016-08-27T01:57:50.298Z,74.91
2016-08-27T01:58:50.282Z,75.1
2016-08-27T01:59:50.264Z,75.01
2016-08-27T02:00:50.244Z,74.82
2016-08-27T02:01:50.225Z,74.91
2016-08-27T02:02:50.214Z,75.01
2016-08-27T02:03:50.191Z,74.91
2016-08-27T02:04:50.172Z,75.01
2016-08-27T02:05:50.158Z,75.01
2016-08-27T02:06:50.140Z,74.68
2016-08-27T02:07:50.123Z,74.91
2016-08-27T02:08:50.105Z,74.91
2016-08-27T02:09:50.086Z,74.88
2016-08-27T02:10:50.071Z,74.68
2016-08-27T02:11:50.051Z,74.68
2016-08-27T02:12:50.035Z,75.07
2016-08-27T02:13:50.710Z,74.68
2016-08-27T02:14:49.998Z,74.88
2016-08-27T02:15:49.988Z,74.58
2016-08-27T02:16:49.982Z,74.88
2016-08-27T02:17:49.948Z,75.16
2016-08-27T02:18:49.931Z,75.36
2016-08-27T02:19:49.913Z,75.16
2016-08-27T02:20:49.896Z,74.68
2016-08-27T02:21:49.877Z,75.07
2016-08-27T02:22:49.857Z,74.78
2016-08-27T02:23:49.841Z,75.16
2016-08-27T02:24:49.825Z,74.88
2016-08-27T02:25:49.807Z,74.97
2016-08-27T02:26:49.788Z,74.88
2016-08-27T02:27:49.772Z,75.16
2016-08-27T02:28:49.763Z,74.97
2016-08-27T02:29:49.734Z,74.68
2016-08-27T02:30:49.730Z,74.88
2016-08-27T02:31:49.702Z,74.78
2016-08-27T02:32:49.690Z,74.88
2016-08-27T02:33:49.667Z,74.88
2016-08-27T02:34:49.649Z,74.68
2016-08-27T02:35:49.638Z,74.88
2016-08-27T02:36:49.621Z,74.97
2016-08-27T02:37:49.602Z,74.88
2016-08-27T02:38:49.578Z,74.78
2016-08-27T02:39:49.561Z,74.78
2016-08-27T02:40:49.542Z,74.97
2016-08-27T02:41:49.526Z,74.78
2016-08-27T02:42:49.508Z,74.88
2016-08-27T02:43:49.490Z,74.88
2016-08-27T02:44:49.473Z,74.97
2016-08-27T02:45:49.456Z,74.78
2016-08-27T02:46:49.437Z,74.88
2016-08-27T02:47:49.422Z,75.07
2016-08-27T02:48:49.401Z,74.58
2016-08-27T02:49:49.383Z,75.07
2016-08-27T02:50:49.368Z,75.36
2016-08-27T02:51:49.347Z,75.03
2016-08-27T02:52:49.329Z,74.97
2016-08-27T02:53:49.315Z,75.55
2016-08-27T02:54:49.295Z,75.42
2016-08-27T02:55:49.276Z,75.23
2016-08-27T02:56:49.258Z,75.32
2016-08-27T02:57:49.241Z,75.61
2016-08-27T02:58:49.225Z,75.51
2016-08-27T02:59:49.219Z,75.51
2016-08-27T03:00:49.189Z,75.32
2016-08-27T03:01:49.168Z,75.8
2016-08-27T03:02:49.153Z,75.71
2016-08-27T03:03:49.133Z,75.61
2016-08-27T03:04:49.116Z,75.61
2016-08-27T03:05:49.099Z,75.61
2016-08-27T03:06:49.079Z,75.51
2016-08-27T03:07:49.060Z,75.71
2016-08-27T03:08:49.044Z,75.61
2016-08-27T03:09:49.027Z,75.61
2016-08-27T03:10:49.008Z,75.61
2016-08-27T03:11:48.990Z,75.71
2016-08-27T03:12:48.973Z,75.8
2016-08-27T03:13:48.952Z,75.8
2016-08-27T03:14:48.934Z,75.71
2016-08-27T03:15:48.919Z,75.51
2016-08-27T03:16:48.901Z,75.9
2016-08-27T03:17:48.884Z,75.32
2016-08-27T03:18:48.868Z,75.32
2016-08-27T03:19:48.846Z,75.42
2016-08-27T03:20:48.830Z,75.57
2016-08-27T03:21:48.860Z,75.03
2016-08-27T03:22:48.793Z,75.13
2016-08-27T03:23:48.774Z,75.23
2016-08-27T03:24:48.755Z,75.03
2016-08-27T03:25:48.737Z,74.84
2016-08-27T03:26:48.719Z,74.93
2016-08-27T03:27:48.701Z,75.03
2016-08-27T03:28:48.682Z,74.84
2016-08-27T03:29:48.664Z,74.74
2016-08-27T03:30:48.648Z,74.93
2016-08-27T03:31:48.634Z,74.16
2016-08-27T03:32:48.610Z,74.45
2016-08-27T03:33:48.612Z,74.55
2016-08-27T03:34:48.573Z,74.41
2016-08-27T03:35:48.560Z,74.61
2016-08-27T03:36:48.538Z,74.51
2016-08-27T03:37:48.521Z,74.51
2016-08-27T03:38:48.504Z,74.32
2016-08-27T03:39:48.486Z,74.61
2016-08-27T03:40:48.466Z,74.41
2016-08-27T03:41:48.459Z,74.41
2016-08-27T03:42:48.431Z,74.71
2016-08-27T03:43:48.413Z,74.71
2016-08-27T03:44:48.394Z,74.51
2016-08-27T03:45:48.375Z,74.71
2016-08-27T03:46:48.361Z,74.22
2016-08-27T03:47:48.339Z,75.09
2016-08-27T03:48:48.321Z,74.99
2016-08-27T03:49:48.308Z,74.9
2016-08-27T03:50:48.284Z,74.9
2016-08-27T03:51:48.269Z,74.9
2016-08-27T03:52:48.246Z,74.8
2016-08-27T03:53:48.228Z,75.09
2016-08-27T03:54:48.212Z,75.38
2016-08-27T03:55:48.194Z,75.09
2016-08-27T03:56:48.179Z,75.09
2016-08-27T03:57:48.162Z,75.09
2016-08-27T03:58:48.138Z,75.28
2016-08-27T03:59:48.122Z,74.9
2016-08-27T04:00:48.102Z,75.09
2016-08-27T04:01:48.080Z,74.9
2016-08-27T04:02:48.064Z,74.9
2016-08-27T04:03:48.048Z,75.48
2016-08-27T04:04:48.036Z,75.67
2016-08-27T04:05:48.016Z,75.44
2016-08-27T04:06:47.996Z,75.44
2016-08-27T04:07:47.974Z,75.44
2016-08-27T04:08:47.957Z,75.73
2016-08-27T04:09:47.938Z,75.92
2016-08-27T04:10:47.922Z,75.63
2016-08-27T04:11:47.901Z,75.92
2016-08-27T04:12:47.882Z,75.73
2016-08-27T04:13:47.863Z,76.4
2016-08-27T04:14:47.845Z,76.31
2016-08-27T04:15:47.826Z,76.21
2016-08-27T04:16:47.809Z,76.31
2016-08-27T04:17:47.789Z,76.01
2016-08-27T04:18:47.771Z,76.11
2016-08-27T04:19:47.759Z,76.31
2016-08-27T04:20:47.736Z,76.69
2016-08-27T04:21:47.717Z,76.59
2016-08-27T04:22:47.698Z,76.4
2016-08-27T04:23:47.680Z,76.4
2016-08-27T04:24:47.658Z,76.59
2016-08-27T04:25:48.344Z,76.69
2016-08-27T04:26:47.623Z,76.21
2016-08-27T04:27:47.603Z,76.31
2016-08-27T04:28:47.586Z,76.69
2016-08-27T04:29:47.569Z,76.59
2016-08-27T04:30:47.549Z,76.36
2016-08-27T04:31:47.537Z,76.5
2016-08-27T04:32:47.513Z,76.4
2016-08-27T04:33:47.509Z,76.36
2016-08-27T04:34:47.475Z,76.36
2016-08-27T04:35:47.454Z,76.26
2016-08-27T04:36:47.439Z,76.26
2016-08-27T04:37:47.419Z,76.56
2016-08-27T04:38:47.402Z,76.07
2016-08-27T04:39:47.380Z,76.07
2016-08-27T04:40:47.362Z,76.07
2016-08-27T04:41:47.343Z,76.07
2016-08-27T04:42:47.323Z,76.36
2016-08-27T04:43:47.307Z,76.17
2016-08-27T04:44:47.287Z,75.98
2016-08-27T04:45:47.267Z,75.88
2016-08-27T04:46:47.250Z,76.07
2016-08-27T04:47:47.231Z,76.07
2016-08-27T04:48:47.225Z,75.49
2016-08-27T04:49:47.193Z,75.69
2016-08-27T04:50:47.176Z,75.79
2016-08-27T04:51:47.158Z,75.31
2016-08-27T04:52:47.138Z,75.49
2016-08-27T04:53:47.119Z,75.92
2016-08-27T04:54:47.099Z,75.69
2016-08-27T04:55:47.081Z,75.4
2016-08-27T04:56:47.061Z,75.31
2016-08-27T04:57:47.045Z,75.34
2016-08-27T04:58:47.026Z,75.05
2016-08-27T04:59:47.009Z,74.92
2016-08-27T05:00:46.988Z,75.05
2016-08-27T05:01:46.969Z,75.02
2016-08-27T05:02:46.951Z,75.15
2016-08-27T05:03:46.931Z,74.86
2016-08-27T05:04:46.916Z,74.57
2016-08-27T05:05:46.898Z,74.82
2016-08-27T05:06:46.877Z,74.76
2016-08-27T05:07:46.858Z,74.86
2016-08-27T05:08:46.840Z,75.05
2016-08-27T05:09:46.837Z,74.48
2016-08-27T05:10:46.800Z,74.44
2016-08-27T05:11:46.787Z,74.48
2016-08-27T05:12:46.764Z,74.19
2016-08-27T05:13:46.745Z,74.25
2016-08-27T05:14:46.729Z,74.19
2016-08-27T05:15:46.709Z,74.09
2016-08-27T05:16:46.696Z,74.09
2016-08-27T05:17:46.675Z,74.25
2016-08-27T05:18:46.657Z,74.48
2016-08-27T05:19:46.636Z,74.25
2016-08-27T05:20:46.619Z,74.25
2016-08-27T05:21:46.599Z,74.34
2016-08-27T05:22:46.579Z,74.15
2016-08-27T05:23:46.562Z,74.15
2016-08-27T05:24:46.546Z,74.15
2016-08-27T05:25:46.525Z,74.19
2016-08-27T05:26:46.506Z,73.96
2016-08-27T05:27:46.487Z,73.96
2016-08-27T05:28:46.472Z,73.86
2016-08-27T05:29:46.449Z,73.99
2016-08-27T05:30:46.435Z,73.96
2016-08-27T05:31:46.420Z,73.77
2016-08-27T05:32:46.397Z,73.99
2016-08-27T05:33:46.379Z,73.71
2016-08-27T05:34:46.360Z,73.61
2016-08-27T05:35:46.343Z,73.8
2016-08-27T05:36:46.321Z,73.51
2016-08-27T05:37:46.305Z,73.42
2016-08-27T05:38:46.286Z,73.99
2016-08-27T05:39:46.271Z,73.42
2016-08-27T05:40:46.251Z,73.51
2016-08-27T05:41:46.233Z,73.9
2016-08-27T05:42:46.214Z,73.32
2016-08-27T05:43:46.194Z,73.13
2016-08-27T05:44:46.178Z,73.22
2016-08-27T05:45:46.159Z,73.42
2016-08-27T05:46:46.143Z,73.42
2016-08-27T05:47:46.123Z,73.61
2016-08-27T05:48:46.106Z,73.03
2016-08-27T05:49:46.089Z,72.94
2016-08-27T05:50:46.067Z,72.26
2016-08-27T05:51:46.053Z,72.74
2016-08-27T05:52:46.033Z,73.03
2016-08-27T05:53:46.015Z,73.03
2016-08-27T05:54:45.999Z,73.03
2016-08-27T05:55:45.979Z,72.74
2016-08-27T05:56:45.962Z,72.26
2016-08-27T05:57:45.940Z,72.45
2016-08-27T05:58:45.924Z,71.97
2016-08-27T05:59:45.904Z,72.07
2016-08-27T06:00:45.888Z,72.26
2016-08-27T06:01:45.868Z,71.59
2016-08-27T06:02:45.853Z,71.72
2016-08-27T06:03:45.845Z,71.72
2016-08-27T06:04:45.815Z,71.49
2016-08-27T06:05:45.799Z,71.49
2016-08-27T06:06:45.778Z,71.53
2016-08-27T06:07:45.762Z,71.53
2016-08-27T06:08:45.751Z,71.43
2016-08-27T06:09:45.727Z,71.53
2016-08-27T06:10:45.710Z,71.24
2016-08-27T06:11:45.693Z,71.24
2016-08-27T06:12:45.674Z,71.24
2016-08-27T06:13:45.655Z,71.24
2016-08-27T06:14:45.640Z,70.56
2016-08-27T06:15:45.620Z,70.76
2016-08-27T06:16:45.603Z,70.66
2016-08-27T06:17:45.585Z,70.56
2016-08-27T06:18:45.567Z,70.28
2016-08-27T06:19:45.551Z,70.09
2016-08-27T06:20:45.533Z,70.37
2016-08-27T06:21:45.518Z,70.56
2016-08-27T06:22:45.498Z,70.41
2016-08-27T06:23:45.479Z,70.02
2016-08-27T06:24:45.461Z,70.21
2016-08-27T06:25:45.446Z,69.73
2016-08-27T06:26:45.430Z,69.83
2016-08-27T06:27:45.413Z,69.64
2016-08-27T06:28:45.395Z,69.45
2016-08-27T06:29:45.380Z,69.15
2016-08-27T06:30:45.363Z,69.06
2016-08-27T06:31:45.341Z,69.06
2016-08-27T06:32:45.326Z,68.68
2016-08-27T06:33:45.315Z,68.68
2016-08-27T06:34:45.293Z,68.77
2016-08-27T06:35:45.282Z,68.52
2016-08-27T06:36:45.260Z,68.19
2016-08-27T06:37:45.246Z,68.04
2016-08-27T06:38:45.225Z,67.94
2016-08-27T06:39:45.213Z,67.74
2016-08-27T06:40:45.194Z,67.46
2016-08-27T06:41:45.181Z,67.65
2016-08-27T06:42:45.166Z,67.26
2016-08-27T06:43:45.149Z,67.26
2016-08-27T06:44:45.134Z,67.84
2016-08-27T06:45:45.117Z,67.26
2016-08-27T06:46:45.101Z,66.59
2016-08-27T06:47:45.084Z,66.14
2016-08-27T06:48:45.762Z,66.62
2016-08-27T06:49:45.054Z,66.24
2016-08-27T06:50:45.039Z,66.04
2016-08-27T06:51:45.022Z,66.33
2016-08-27T06:52:45.006Z,66.33
2016-08-27T06:53:44.990Z,66.04
2016-08-27T06:54:44.978Z,65.95
2016-08-27T06:55:44.958Z,66.14
2016-08-27T06:56:44.942Z,65.95
2016-08-27T06:57:44.927Z,65.85
2016-08-27T06:58:44.911Z,66.04
2016-08-27T06:59:44.893Z,65.85
2016-08-27T07:00:44.878Z,66.04
2016-08-27T07:01:44.860Z,66.14
2016-08-27T07:02:44.845Z,65.75
2016-08-27T07:03:44.829Z,65.85
2016-08-27T07:04:44.819Z,65.85
2016-08-27T07:05:44.797Z,65.37
2016-08-27T07:06:44.786Z,65.47
2016-08-27T07:07:44.765Z,65.27
2016-08-27T07:08:44.749Z,65.2
2016-08-27T07:09:44.733Z,65.27
2016-08-27T07:10:44.718Z,64.92
2016-08-27T07:11:44.701Z,64.92
2016-08-27T07:12:44.688Z,64.63
2016-08-27T07:13:44.671Z,64.05
2016-08-27T07:14:44.660Z,64.08
2016-08-27T07:15:44.642Z,64.18
2016-08-27T07:16:44.628Z,63.7
2016-08-27T07:17:44.613Z,63.31
2016-08-27T07:18:44.598Z,63.02
2016-08-27T07:19:44.585Z,63.02
2016-08-27T07:20:44.571Z,62.86
2016-08-27T07:21:44.559Z,62.18
2016-08-27T07:22:44.544Z,62.28
2016-08-27T07:23:44.530Z,61.6
2016-08-27T07:24:44.516Z,61.73
2016-08-27T07:25:44.503Z,61.83
2016-08-27T07:26:44.490Z,61.34
2016-08-27T07:27:44.473Z,60.96
2016-08-27T07:28:44.461Z,61.34
2016-08-27T07:29:44.445Z,61.25
2016-08-27T07:30:44.433Z,60.76
2016-08-27T07:31:44.424Z,60.96
2016-08-27T07:32:44.405Z,60.86
2016-08-27T07:33:44.388Z,60.47
2016-08-27T07:34:44.375Z,60.47
2016-08-27T07:35:44.362Z,60.76
2016-08-27T07:36:44.346Z,60.18
2016-08-27T07:37:44.334Z,60.41
2016-08-27T07:38:44.319Z,59.89
2016-08-27T07:39:44.308Z,59.73
2016-08-27T07:40:44.296Z,59.44
2016-08-27T07:41:44.281Z,59.44
2016-08-27T07:42:44.267Z,59.44
2016-08-27T07:43:44.256Z,58.8
2016-08-27T07:44:44.243Z,58.89
2016-08-27T07:45:44.229Z,58.67
2016-08-27T07:46:44.218Z,58.8
2016-08-27T07:47:44.203Z,58.98
2016-08-27T07:48:44.189Z,58.4
2016-08-27T07:49:44.180Z,58.21
2016-08-27T07:50:44.169Z,58.4
2016-08-27T07:51:44.151Z,58.12
2016-08-27T07:52:44.146Z,58.02
2016-08-27T07:53:44.128Z,57.92
2016-08-27T07:54:44.115Z,58.02
2016-08-27T07:55:44.107Z,58.04
2016-08-27T07:56:44.091Z,57.86
2016-08-27T07:57:44.077Z,57.46
2016-08-27T07:58:44.066Z,58.04
2016-08-27T07:59:44.052Z,57.95
2016-08-27T08:00:44.039Z,58.04
2016-08-27T08:01:44.027Z,57.95
2016-08-27T08:02:44.014Z,58.04
2016-08-27T08:03:43.999Z,57.76
2016-08-27T08:04:43.986Z,57.86
2016-08-27T08:05:43.975Z,57.95
2016-08-27T08:06:43.957Z,58.04
2016-08-27T08:07:43.945Z,57.95
2016-08-27T08:08:43.931Z,57.86
2016-08-27T08:09:43.919Z,58.02
2016-08-27T08:10:43.906Z,58.04
2016-08-27T08:11:43.890Z,57.86
2016-08-27T08:12:43.877Z,57.86
2016-08-27T08:13:43.859Z,57.95
2016-08-27T08:14:43.847Z,58.04
2016-08-27T08:15:43.832Z,57.66
2016-08-27T08:16:43.821Z,57.86
2016-08-27T08:17:43.803Z,58.02
2016-08-27T08:18:43.790Z,58.04
2016-08-27T08:19:43.775Z,58.53
2016-08-27T08:20:43.764Z,58.53
2016-08-27T08:21:43.746Z,58.21
2016-08-27T08:22:43.732Z,58.4
2016-08-27T08:23:43.720Z,58.21
2016-08-27T08:24:43.702Z,58.4
2016-08-27T08:25:43.687Z,58.34
2016-08-27T08:26:43.671Z,58.14
2016-08-27T08:27:43.658Z,58.5
2016-08-27T08:28:43.644Z,59.08
2016-08-27T08:29:43.627Z,58.89
2016-08-27T08:30:43.614Z,58.98
2016-08-27T08:31:43.599Z,58.8
2016-08-27T08:32:43.586Z,58.63
2016-08-27T08:33:43.572Z,58.72
2016-08-27T08:34:43.555Z,58.44
2016-08-27T08:35:43.541Z,58.63
2016-08-27T08:36:43.525Z,58.34
2016-08-27T08:37:43.511Z,58.34
2016-08-27T08:38:43.494Z,58.34
2016-08-27T08:39:43.481Z,58.14
2016-08-27T08:40:43.467Z,58.04
2016-08-27T08:41:43.456Z,57.56
2016-08-27T08:42:43.437Z,58.04
2016-08-27T08:43:43.420Z,57.95
2016-08-27T08:44:43.411Z,57.98
2016-08-27T08:45:43.393Z,57.98
2016-08-27T08:46:43.381Z,58.07
2016-08-27T08:47:43.362Z,57.98
2016-08-27T08:48:43.350Z,58.07
2016-08-27T08:49:43.333Z,57.98
2016-08-27T08:50:43.322Z,58.14
2016-08-27T08:51:43.307Z,58.14
2016-08-27T08:52:43.290Z,58.17
2016-08-27T08:53:43.277Z,57.5
2016-08-27T08:54:43.261Z,57.3
2016-08-27T08:55:43.248Z,57.4
2016-08-27T08:56:43.234Z,57.2
2016-08-27T08:57:43.218Z,57.3
2016-08-27T08:58:43.202Z,57.3
2016-08-27T08:59:43.190Z,57.01
2016-08-27T09:00:43.174Z,57.2
2016-08-27T09:01:43.160Z,57.11
2016-08-27T09:02:43.149Z,56.65
2016-08-27T09:03:43.132Z,57.14
2016-08-27T09:04:43.118Z,56.85
2016-08-27T09:05:43.114Z,56.75
2016-08-27T09:06:43.089Z,56.46
2016-08-27T09:07:43.074Z,56.94
2016-08-27T09:08:43.060Z,56.75
2016-08-27T09:09:43.047Z,56.94
2016-08-27T09:10:43.031Z,56.56
2016-08-27T09:11:43.016Z,56.46
2016-08-27T09:12:43.003Z,56.26
2016-08-27T09:13:42.990Z,55.98
2016-08-27T09:14:42.976Z,56.07
2016-08-27T09:15:42.961Z,56.2
2016-08-27T09:16:42.946Z,56.1
2016-08-27T09:17:42.932Z,56.29
2016-08-27T09:18:42.920Z,56.49
2016-08-27T09:19:42.904Z,56.2
2016-08-27T09:20:42.891Z,56.1
2016-08-27T09:21:42.877Z,56.49
2016-08-27T09:22:42.861Z,55.81
2016-08-27T09:23:42.848Z,55.81
2016-08-27T09:24:42.833Z,55.62
2016-08-27T09:25:42.827Z,55.54
2016-08-27T09:26:42.807Z,55.22
2016-08-27T09:27:42.807Z,55.35
2016-08-27T09:28:42.778Z,55.35
2016-08-27T09:29:42.776Z,55.16
2016-08-27T09:30:42.751Z,55.16
2016-08-27T09:31:42.736Z,55.35
2016-08-27T09:32:42.724Z,54.77
2016-08-27T09:33:42.711Z,54.38
2016-08-27T09:34:42.696Z,54.8
2016-08-27T09:35:42.682Z,54.8
2016-08-27T09:36:42.670Z,54.11
2016-08-27T09:37:42.659Z,54.6
2016-08-27T09:38:42.640Z,54.11
2016-08-27T09:39:42.627Z,53.66
2016-08-27T09:40:42.613Z,54.14
2016-08-27T09:41:42.601Z,53.47
2016-08-27T09:42:42.586Z,53.56
2016-08-27T09:43:42.574Z,53.56
2016-08-27T09:44:42.558Z,53.56
2016-08-27T09:45:42.546Z,53.56
2016-08-27T09:46:42.534Z,53.37
2016-08-27T09:47:42.520Z,52.81
2016-08-27T09:48:42.507Z,52.91
2016-08-27T09:49:42.491Z,53.1
2016-08-27T09:50:42.480Z,52.81
2016-08-27T09:51:42.472Z,52.81
2016-08-27T09:52:42.455Z,52.62
2016-08-27T09:53:42.442Z,52.42
2016-08-27T09:54:42.428Z,52.42
2016-08-27T09:55:42.415Z,52.23
2016-08-27T09:56:42.400Z,52.52
2016-08-27T09:57:42.389Z,52.03
2016-08-27T09:58:42.376Z,52.23
2016-08-27T09:59:42.364Z,52.15
2016-08-27T10:00:42.350Z,52.23
2016-08-27T10:01:42.337Z,51.67
2016-08-27T10:02:42.325Z,51.67
2016-08-27T10:03:42.311Z,51.77
2016-08-27T10:04:42.298Z,51.77
2016-08-27T10:05:42.285Z,51.87
2016-08-27T10:06:42.271Z,51.67
2016-08-27T10:07:42.259Z,51.57
2016-08-27T10:08:42.246Z,51.67
2016-08-27T10:09:42.240Z,51.67
2016-08-27T10:10:42.226Z,51.57
2016-08-27T10:11:42.212Z,51.48
2016-08-27T10:12:42.194Z,51.28
2016-08-27T10:13:42.191Z,51.38
2016-08-27T10:14:42.179Z,51.38
2016-08-27T10:15:42.158Z,51.57
2016-08-27T10:16:42.144Z,51.67
2016-08-27T10:17:42.129Z,51.7
2016-08-27T10:18:42.118Z,51.5
2016-08-27T10:19:42.106Z,51.4
2016-08-27T10:20:42.094Z,51.11
2016-08-27T10:21:42.079Z,50.63
2016-08-27T10:22:42.069Z,50.73
2016-08-27T10:23:42.060Z,50.63
2016-08-27T10:24:42.042Z,50.73
2016-08-27T10:25:42.045Z,50.92
2016-08-27T10:26:42.017Z,50.53
2016-08-27T10:27:42.696Z,50.65
2016-08-27T10:28:41.991Z,50.75
2016-08-27T10:29:41.980Z,50.75
2016-08-27T10:30:41.972Z,50.56
2016-08-27T10:31:41.954Z,50.36
2016-08-27T10:32:41.942Z,50.46
2016-08-27T10:33:41.930Z,49.97
2016-08-27T10:34:41.917Z,49.87
2016-08-27T10:35:41.904Z,49.87
2016-08-27T10:36:41.893Z,49.8
2016-08-27T10:37:41.880Z,49.99
2016-08-27T10:38:41.868Z,49.71
2016-08-27T10:39:41.853Z,49.41
2016-08-27T10:40:41.843Z,49.41
2016-08-27T10:41:41.832Z,49.41
2016-08-27T10:42:41.819Z,49.61
2016-08-27T10:43:41.820Z,49.51
2016-08-27T10:44:41.792Z,49.71
2016-08-27T10:45:41.782Z,49.22
2016-08-27T10:46:41.769Z,49.02
2016-08-27T10:47:41.759Z,49.22
2016-08-27T10:48:41.745Z,49.51
2016-08-27T10:49:41.733Z,48.66
2016-08-27T10:50:41.721Z,49.41
2016-08-27T10:51:41.711Z,49.54
2016-08-27T10:52:41.696Z,49.05
2016-08-27T10:53:41.694Z,48.95
2016-08-27T10:54:41.673Z,49.24
2016-08-27T10:55:41.659Z,48.56
2016-08-27T10:56:41.650Z,48.66
2016-08-27T10:57:41.635Z,48.58
2016-08-27T10:58:41.628Z,48.46
2016-08-27T10:59:41.613Z,48.46
2016-08-27T11:00:41.602Z,48.68
2016-08-27T11:01:41.589Z,48.46
2016-08-27T11:02:41.576Z,48.19
2016-08-27T11:03:41.567Z,48.49
2016-08-27T11:04:41.553Z,48.78
2016-08-27T11:05:42.239Z,48.66
2016-08-27T11:06:41.531Z,48.46
2016-08-27T11:07:41.523Z,48.46
2016-08-27T11:08:41.503Z,48.68
2016-08-27T11:09:41.493Z,48.66
2016-08-27T11:10:41.481Z,48.88
2016-08-27T11:11:41.471Z,48.27
2016-08-27T11:12:41.458Z,48.29
2016-08-27T11:13:41.447Z,48.49
2016-08-27T11:14:41.437Z,48.29
2016-08-27T11:15:41.422Z,47.8
2016-08-27T11:16:41.410Z,47.61
2016-08-27T11:17:41.399Z,48
2016-08-27T11:18:41.389Z,48.32
2016-08-27T11:19:41.374Z,47.63
2016-08-27T11:20:41.365Z,47.83
2016-08-27T11:21:41.352Z,47.63
2016-08-27T11:22:41.341Z,47.44
2016-08-27T11:23:41.330Z,47.05
2016-08-27T11:24:41.315Z,47.15
2016-08-27T11:25:41.321Z,46.86
2016-08-27T11:26:41.297Z,46.95
2016-08-27T11:27:41.283Z,47.25
2016-08-27T11:28:41.273Z,47.05
2016-08-27T11:29:41.258Z,46.95
2016-08-27T11:30:41.249Z,46.76
2016-08-27T11:31:41.234Z,46.88
2016-08-27T11:32:41.226Z,46.97
2016-08-27T11:33:41.214Z,46.78
2016-08-27T11:34:41.203Z,46.69
2016-08-27T11:35:41.195Z,46.59
2016-08-27T11:36:41.184Z,46.88
2016-08-27T11:37:41.170Z,46.39
2016-08-27T11:38:41.158Z,46.2
2016-08-27T11:39:41.147Z,46.22
2016-08-27T11:40:41.136Z,46.31
2016-08-27T11:41:41.123Z,46.12
2016-08-27T11:42:41.115Z,45.92
2016-08-27T11:43:41.101Z,45.92
2016-08-27T11:44:41.092Z,45.34
2016-08-27T11:45:41.079Z,45.46
2016-08-27T11:46:41.070Z,45.65
2016-08-27T11:47:41.061Z,45.46
2016-08-27T11:48:41.048Z,45.46
2016-08-27T11:49:41.036Z,45.26
2016-08-27T11:50:41.785Z,45.36
2016-08-27T11:51:41.023Z,45.07
2016-08-27T11:52:41.003Z,44.87
2016-08-27T11:53:40.992Z,45.09
2016-08-27T11:54:40.982Z,45.07
2016-08-27T11:55:40.970Z,45.07
2016-08-27T11:56:40.961Z,44.97
2016-08-27T11:57:40.948Z,45.07
2016-08-27T11:58:40.942Z,44.97
2016-08-27T11:59:40.928Z,45.07
2016-08-27T12:00:40.923Z,44.97
2016-08-27T12:01:40.906Z,45.07
2016-08-27T12:02:40.900Z,44.97
2016-08-27T12:03:40.886Z,45.09
2016-08-27T12:04:40.872Z,44.68
2016-08-27T12:05:40.866Z,44.9
2016-08-27T12:06:40.851Z,44.51
2016-08-27T12:07:40.847Z,44.21
2016-08-27T12:08:40.836Z,44.41
2016-08-27T12:09:40.821Z,44.31
2016-08-27T12:10:40.811Z,43.92
2016-08-27T12:11:41.491Z,44.04
2016-08-27T12:12:40.790Z,44.14
2016-08-27T12:13:40.780Z,43.95
2016-08-27T12:14:40.769Z,43.95
2016-08-27T12:15:40.759Z,44.14
2016-08-27T12:16:40.746Z,43.95
2016-08-27T12:17:40.747Z,43.95
2016-08-27T12:18:40.726Z,43.85
2016-08-27T12:19:40.718Z,43.65
2016-08-27T12:20:40.707Z,43.75
2016-08-27T12:21:40.697Z,43.46
2016-08-27T12:22:40.687Z,43.65
2016-08-27T12:23:40.677Z,43.36
2016-08-27T12:24:40.669Z,43.28
2016-08-27T12:25:40.655Z,43.08
2016-08-27T12:26:40.646Z,43.18
2016-08-27T12:27:40.636Z,43.08
2016-08-27T12:28:40.626Z,43.18
2016-08-27T12:29:40.615Z,42.89
2016-08-27T12:30:40.603Z,43.01
2016-08-27T12:31:40.596Z,42.61
2016-08-27T12:32:40.583Z,42.52
2016-08-27T12:33:40.580Z,42.42
2016-08-27T12:34:40.566Z,42.71
2016-08-27T12:35:40.555Z,42.61
2016-08-27T12:36:40.552Z,42.13
2016-08-27T12:37:40.535Z,41.86
2016-08-27T12:38:40.527Z,41.66
2016-08-27T12:39:40.517Z,41.86
2016-08-27T12:40:40.506Z,41.76
2016-08-27T12:41:40.499Z,41.66
2016-08-27T12:42:40.488Z,41.66
2016-08-27T12:43:40.478Z,41.56
2016-08-27T12:44:40.467Z,41.56
2016-08-27T12:45:40.464Z,41.56
2016-08-27T12:46:40.447Z,41.56
2016-08-27T12:47:40.439Z,41.56
2016-08-27T12:48:40.427Z,41.46
2016-08-27T12:49:40.431Z,41.56
2016-08-27T12:50:40.411Z,41.66
2016-08-27T12:51:40.405Z,41.56
2016-08-27T12:52:40.390Z,41.46
2016-08-27T12:53:40.381Z,41.07
2016-08-27T12:54:40.372Z,41.27
2016-08-27T12:55:40.367Z,41.36